Time;durP1;ratioP1;P1;durP2;ratioP2;P2;SDS_P1;SDS_P2;PMS_P1;PMS_P2;Temp;Humidity;BMP_temperature;BMP_pressure;BME280_temperature;BME280_humidity;BME280_pressure;Samples;Min_cycle;Max_cycle;Signal;HPM_P1;HPM_P2
2024/03/09 00:01:15;;;;;;;18.53;13.83;;;5.70;99.90;;;;;;5093566;28;20440;-69
2024/03/09 00:03:40;;;;;;;18.27;13.70;;;5.70;99.90;;;;;;5093607;28;20419;-70
2024/03/09 00:06:07;;;;;;;16.67;12.57;;;5.70;99.90;;;;;;5087615;28;20490;-70
2024/03/09 00:08:34;;;;;;;17.03;13.07;;;5.70;99.90;;;;;;5073163;28;20217;-70
2024/03/09 00:11:00;;;;;;;20.50;15.70;;;5.70;99.90;;;;;;5073237;28;20476;-70
2024/03/09 00:13:27;;;;;;;20.33;14.23;;;5.70;99.90;;;;;;5072995;28;20429;-70
2024/03/09 00:15:54;;;;;;;16.93;13.40;;;5.60;99.90;;;;;;5077235;28;20415;-69
2024/03/09 00:18:20;;;;;;;20.10;13.33;;;5.70;99.90;;;;;;5093400;28;20509;-70
2024/03/09 00:20:47;;;;;;;17.10;13.13;;;5.70;99.90;;;;;;5093083;28;20554;-69
2024/03/09 00:23:13;;;;;;;16.23;12.20;;;5.80;99.90;;;;;;5092986;28;20417;-70
2024/03/09 00:25:40;;;;;;;19.13;14.80;;;5.80;99.90;;;;;;5090943;28;20403;-70
2024/03/09 00:28:06;;;;;;;18.90;13.27;;;5.90;99.90;;;;;;5073058;28;20402;-70
2024/03/09 00:30:32;;;;;;;20.50;15.20;;;6.00;99.90;;;;;;5075789;28;20409;-69
2024/03/09 00:32:59;;;;;;;14.90;12.80;;;6.00;99.90;;;;;;5093093;28;20425;-70
2024/03/09 00:35:27;;;;;;;17.63;13.40;;;6.00;99.90;;;;;;5092865;28;20495;-70
2024/03/09 00:37:53;;;;;;;15.67;12.63;;;6.20;99.90;;;;;;5056051;28;20440;-70
2024/03/09 00:40:19;;;;;;;16.37;14.50;;;6.30;99.90;;;;;;5075052;28;20994;-69
2024/03/09 00:42:48;;;;;;;16.97;13.10;;;6.40;99.90;;;;;;5072844;28;20400;-70
2024/03/09 00:45:15;;;;;;;20.70;13.67;;;6.50;99.90;;;;;;5072650;28;20410;-70
2024/03/09 00:47:46;;;;;;;16.60;13.07;;;6.60;99.90;;;;;;5091442;28;20414;-70
2024/03/09 00:50:15;;;;;;;16.33;11.93;;;6.50;99.90;;;;;;5092897;28;20451;-70
2024/03/09 00:52:42;;;;;;;17.63;14.00;;;6.50;99.90;;;;;;5092506;28;20816;-70
2024/03/09 00:55:14;;;;;;;16.40;12.27;;;6.60;99.90;;;;;;5093638;28;20443;-69
2024/03/09 00:57:50;;;;;;;17.40;14.10;;;6.50;99.90;;;;;;5074608;28;20959;-70
2024/03/09 01:00:18;;;;;;;16.80;13.40;;;6.40;99.90;;;;;;5072856;28;20512;-70
2024/03/09 01:02:46;;;;;;;17.00;13.20;;;6.30;99.90;;;;;;5072322;28;20486;-70
2024/03/09 01:05:12;;;;;;;18.33;14.50;;;6.20;99.90;;;;;;5072751;28;20404;-70
2024/03/09 01:07:39;;;;;;;17.80;13.17;;;6.00;99.90;;;;;;5074412;28;20940;-70
2024/03/09 01:10:06;;;;;;;16.33;12.87;;;6.10;99.90;;;;;;5092590;28;20423;-70
2024/03/09 01:12:33;;;;;;;17.17;13.70;;;6.10;99.90;;;;;;5096453;28;20486;-69
2024/03/09 01:14:59;;;;;;;16.33;12.47;;;6.10;99.90;;;;;;5096715;28;20408;-70
2024/03/09 01:17:26;;;;;;;17.73;13.63;;;6.10;99.90;;;;;;5080256;28;20857;-70
2024/03/09 01:19:51;;;;;;;16.03;12.70;;;6.10;99.90;;;;;;5076398;28;20440;-70
2024/03/09 01:22:17;;;;;;;16.70;13.93;;;6.10;99.90;;;;;;5076293;28;20758;-70
2024/03/09 01:24:44;;;;;;;14.70;12.17;;;6.10;99.90;;;;;;5075926;28;20623;-70
2024/03/09 01:27:10;;;;;;;14.40;12.90;;;6.00;99.90;;;;;;5089748;28;20437;-70
2024/03/09 01:29:36;;;;;;;16.37;13.00;;;5.90;99.90;;;;;;5096094;28;20431;-70
2024/03/09 01:32:03;;;;;;;20.33;15.47;;;6.00;99.90;;;;;;5096420;28;20605;-70
2024/03/09 01:34:29;;;;;;;17.23;13.70;;;6.10;99.90;;;;;;5095961;28;20419;-70
2024/03/09 01:36:55;;;;;;;17.17;13.33;;;6.20;99.90;;;;;;5084496;28;20413;-70
2024/03/09 01:39:22;;;;;;;16.40;13.40;;;6.20;99.90;;;;;;5075730;28;20389;-70
2024/03/09 01:41:47;;;;;;;18.10;14.87;;;6.10;99.90;;;;;;5075727;28;20556;-70
2024/03/09 01:44:14;;;;;;;16.47;12.63;;;6.10;99.90;;;;;;5075756;28;20416;-70
2024/03/09 01:46:40;;;;;;;15.93;12.73;;;5.90;99.90;;;;;;5085624;28;20163;-70
2024/03/09 01:49:06;;;;;;;17.37;12.30;;;5.70;99.90;;;;;;5096842;28;20409;-70
2024/03/09 01:51:34;;;;;;;16.17;13.47;;;5.60;99.90;;;;;;5097004;28;20443;-70
2024/03/09 01:54:10;;;;;;;17.90;13.93;;;5.60;99.90;;;;;;5079600;28;20486;-70
2024/03/09 01:56:39;;;;;;;18.77;13.80;;;5.60;99.90;;;;;;5088904;28;20922;-70
2024/03/09 01:59:09;;;;;;;18.67;14.40;;;5.60;99.90;;;;;;5076894;28;20409;-70
2024/03/09 02:01:36;;;;;;;17.43;14.70;;;5.60;99.90;;;;;;5077260;28;20441;-70
2024/03/09 02:04:04;;;;;;;21.40;13.77;;;5.60;99.90;;;;;;5076475;28;20432;-70
2024/03/09 02:06:31;;;;;;;17.47;13.73;;;5.70;99.90;;;;;;5077551;28;20422;-70
2024/03/09 02:08:58;;;;;;;20.20;14.87;;;5.70;99.90;;;;;;5095669;28;20407;-70
2024/03/09 02:11:25;;;;;;;23.07;15.70;;;5.60;99.90;;;;;;5095553;28;20403;-70
2024/03/09 02:13:52;;;;;;;17.10;13.40;;;5.70;99.90;;;;;;5095737;28;20427;-70
2024/03/09 02:16:19;;;;;;;17.40;14.03;;;5.60;99.90;;;;;;5089683;28;20938;-70
2024/03/09 02:18:48;;;;;;;17.23;14.33;;;5.50;99.90;;;;;;5075214;28;20400;-70
2024/03/09 02:21:14;;;;;;;18.70;13.97;;;5.60;99.90;;;;;;5074814;28;20441;-70
2024/03/09 02:23:42;;;;;;;17.30;13.57;;;5.70;99.90;;;;;;5075048;28;20504;-70
2024/03/09 02:26:08;;;;;;;17.13;13.13;;;5.70;99.90;;;;;;5079134;28;20433;-70
2024/03/09 02:28:34;;;;;;;19.03;14.50;;;5.70;99.90;;;;;;5095209;28;20400;-70
2024/03/09 02:31:01;;;;;;;20.10;14.50;;;5.80;99.90;;;;;;5095161;28;20486;-70
2024/03/09 02:33:27;;;;;;;18.27;14.20;;;5.80;99.90;;;;;;5095222;28;20434;-71
2024/03/09 02:35:54;;;;;;;17.23;14.70;;;5.80;99.90;;;;;;5089979;28;20458;-72
2024/03/09 02:38:20;;;;;;;21.73;14.40;;;5.90;99.90;;;;;;5094880;28;20408;-70
2024/03/09 02:40:47;;;;;;;19.60;15.07;;;5.90;99.90;;;;;;5075118;28;20456;-70
2024/03/09 02:43:13;;;;;;;17.20;13.80;;;5.80;99.90;;;;;;5074470;28;20420;-71
2024/03/09 02:45:39;;;;;;;19.00;14.50;;;5.90;99.90;;;;;;5074498;28;20397;-69
2024/03/09 02:48:05;;;;;;;18.43;15.10;;;5.90;99.90;;;;;;5094566;28;20408;-71
2024/03/09 02:50:31;;;;;;;16.30;12.77;;;6.10;99.90;;;;;;5094503;28;20419;-71
2024/03/09 02:52:57;;;;;;;18.00;14.63;;;6.10;99.90;;;;;;5094734;28;20435;-71
2024/03/09 02:55:26;;;;;;;15.43;12.03;;;6.20;99.90;;;;;;5094794;28;20177;-68
2024/03/09 02:57:52;;;;;;;20.57;15.13;;;6.30;99.90;;;;;;5076094;28;20748;-69
2024/03/09 03:00:26;;;;;;;18.93;13.83;;;6.40;99.90;;;;;;5074314;28;20490;-69
2024/03/09 03:05:41;;;;;;;16.07;12.30;;;6.40;99.90;;;;;;5074561;28;20954;-70
2024/03/09 03:08:07;;;;;;;17.70;13.47;;;6.40;99.90;;;;;;5093994;28;20441;-69
2024/03/09 03:10:32;;;;;;;15.63;13.27;;;6.40;99.90;;;;;;5094456;28;20881;-69
2024/03/09 03:12:58;;;;;;;21.07;14.33;;;6.50;99.90;;;;;;5094272;28;20654;-69
2024/03/09 03:15:25;;;;;;;16.83;14.20;;;6.30;99.90;;;;;;5094307;28;20169;-69
2024/03/09 03:17:51;;;;;;;19.40;15.13;;;6.50;99.90;;;;;;5076440;28;20416;-69
2024/03/09 03:20:18;;;;;;;16.80;14.13;;;6.50;99.90;;;;;;5073898;28;20441;-69
2024/03/09 03:22:45;;;;;;;19.47;14.00;;;6.60;99.90;;;;;;5073608;28;20167;-69
2024/03/09 03:25:11;;;;;;;16.73;13.90;;;6.70;99.90;;;;;;5073666;28;20403;-70
2024/03/09 03:27:37;;;;;;;15.77;12.93;;;6.80;99.90;;;;;;5089390;28;20466;-71
2024/03/09 03:30:04;;;;;;;18.83;15.50;;;6.80;99.90;;;;;;5093883;28;20246;-70
2024/03/09 03:32:29;;;;;;;18.40;15.17;;;6.80;99.90;;;;;;5093878;28;20543;-69
2024/03/09 03:34:55;;;;;;;16.60;13.50;;;6.80;99.90;;;;;;5093651;28;20512;-69
2024/03/09 03:37:21;;;;;;;17.70;13.80;;;6.80;99.90;;;;;;5080343;28;20640;-69
2024/03/09 03:39:47;;;;;;;15.50;13.17;;;6.80;99.90;;;;;;5073588;28;20404;-69
2024/03/09 03:42:13;;;;;;;17.03;13.60;;;6.80;99.90;;;;;;5073611;28;20195;-69
2024/03/09 03:44:42;;;;;;;19.87;14.90;;;6.70;99.90;;;;;;5073282;28;20229;-69
2024/03/09 03:47:07;;;;;;;20.80;14.73;;;6.80;99.90;;;;;;5084780;28;20182;-69
2024/03/09 03:49:34;;;;;;;18.73;14.53;;;6.90;99.90;;;;;;5093691;28;20403;-70
2024/03/09 03:52:00;;;;;;;19.03;15.10;;;6.90;99.90;;;;;;5093432;28;20172;-70
2024/03/09 03:54:26;;;;;;;18.17;14.43;;;6.90;99.90;;;;;;5093266;28;20833;-70
2024/03/09 03:56:53;;;;;;;18.90;12.77;;;6.80;99.90;;;;;;5084530;28;20399;-70
2024/03/09 03:59:19;;;;;;;17.80;15.47;;;6.80;99.90;;;;;;5073489;28;20176;-70
2024/03/09 04:01:45;;;;;;;19.10;15.10;;;6.80;99.90;;;;;;5073505;28;20850;-70
2024/03/09 04:04:10;;;;;;;19.17;13.93;;;6.80;99.90;;;;;;5076377;28;20420;-70
2024/03/09 04:06:37;;;;;;;20.77;15.80;;;6.80;99.90;;;;;;5079724;28;20199;-70
2024/03/09 04:09:04;;;;;;;21.20;15.10;;;6.90;99.90;;;;;;5093544;28;20635;-70
2024/03/09 04:11:33;;;;;;;19.67;15.43;;;6.90;99.90;;;;;;5093162;28;20436;-70
2024/03/09 04:13:59;;;;;;;19.80;15.77;;;7.00;99.90;;;;;;5093347;28;20512;-71
2024/03/09 04:16:25;;;;;;;24.63;17.43;;;7.00;99.90;;;;;;5088635;28;20411;-70
2024/03/09 04:18:50;;;;;;;20.00;15.80;;;7.10;99.90;;;;;;5072933;28;20469;-70
2024/03/09 04:21:18;;;;;;;19.30;14.40;;;7.10;99.90;;;;;;5072901;28;20191;-71
2024/03/09 04:23:43;;;;;;;17.00;14.20;;;7.10;99.90;;;;;;5073133;28;20180;-70
2024/03/09 04:26:11;;;;;;;19.33;14.43;;;7.20;99.90;;;;;;5075272;28;20413;-71
2024/03/09 04:28:36;;;;;;;19.90;15.43;;;7.10;99.90;;;;;;5093234;28;20171;-70
2024/03/09 04:31:02;;;;;;;17.40;14.10;;;7.10;99.90;;;;;;5090015;28;20402;-70
2024/03/09 04:33:28;;;;;;;16.43;14.27;;;7.20;99.90;;;;;;5092974;28;20426;-70
2024/03/09 04:35:54;;;;;;;16.80;13.70;;;7.20;99.90;;;;;;5075271;28;20173;-70
2024/03/09 04:38:20;;;;;;;17.40;14.70;;;7.30;99.90;;;;;;5093442;28;20400;-71
2024/03/09 04:40:48;;;;;;;19.07;13.93;;;7.30;99.90;;;;;;5088880;28;20193;-71
2024/03/09 04:43:14;;;;;;;20.10;14.93;;;7.30;99.90;;;;;;5072834;28;20426;-71
2024/03/09 04:45:40;;;;;;;19.40;14.47;;;7.30;99.90;;;;;;5074792;28;20409;-71
2024/03/09 04:48:06;;;;;;;18.77;14.50;;;7.20;99.90;;;;;;5095161;28;20169;-70
2024/03/09 04:50:35;;;;;;;16.77;13.33;;;7.30;99.90;;;;;;5097210;28;20412;-70
2024/03/09 04:53:05;;;;;;;19.57;15.43;;;7.30;99.90;;;;;;5096735;28;20200;-70
2024/03/09 04:55:31;;;;;;;20.23;14.47;;;7.30;99.90;;;;;;5097148;28;20393;-70
2024/03/09 04:57:57;;;;;;;15.07;13.47;;;7.40;99.90;;;;;;5079998;28;20411;-70
2024/03/09 05:00:25;;;;;;;21.60;16.97;;;7.30;99.90;;;;;;5076483;28;20325;-69
2024/03/09 05:02:51;;;;;;;19.27;15.63;;;7.20;99.90;;;;;;5076389;28;20780;-70
2024/03/09 05:05:18;;;;;;;23.63;18.27;;;7.00;99.90;;;;;;5076458;28;20410;-70
2024/03/09 05:07:46;;;;;;;21.70;16.93;;;6.90;99.90;;;;;;5091525;28;20172;-70
2024/03/09 05:10:17;;;;;;;20.33;16.43;;;6.90;99.90;;;;;;5096698;28;20402;-71
2024/03/09 05:12:53;;;;;;;19.53;15.30;;;6.90;99.90;;;;;;5096477;28;20904;-71
2024/03/09 05:15:20;;;;;;;20.47;16.80;;;7.10;99.90;;;;;;5097338;28;20474;-71
2024/03/09 05:17:45;;;;;;;22.20;17.53;;;7.10;99.90;;;;;;5081476;28;20401;-71
2024/03/09 05:20:14;;;;;;;18.57;15.73;;;7.10;99.90;;;;;;5077148;28;20782;-71
2024/03/09 05:22:40;;;;;;;22.40;17.57;;;7.10;99.90;;;;;;5076632;28;20699;-71
2024/03/09 05:25:12;;;;;;;21.23;15.33;;;7.10;99.90;;;;;;5076435;28;20486;-71
2024/03/09 05:27:42;;;;;;;18.47;15.23;;;6.90;99.90;;;;;;5090264;28;20169;-71
2024/03/09 05:30:18;;;;;;;20.30;16.23;;;6.80;99.90;;;;;;5097002;28;20438;-71
2024/03/09 05:32:57;;;;;;;19.70;16.73;;;6.90;99.90;;;;;;5097586;28;20391;-70
2024/03/09 05:35:30;;;;;;;20.27;15.90;;;7.00;99.90;;;;;;5099007;28;20889;-71
2024/03/09 05:37:58;;;;;;;23.13;18.60;;;7.10;99.90;;;;;;5082339;28;20482;-71
2024/03/09 05:40:32;;;;;;;21.83;17.37;;;6.80;99.90;;;;;;5077404;28;20503;-71
2024/03/09 05:43:04;;;;;;;19.13;15.83;;;6.90;99.90;;;;;;5076645;28;20419;-71
2024/03/09 05:45:30;;;;;;;18.00;14.30;;;7.00;99.90;;;;;;5077150;28;20413;-71
2024/03/09 05:47:57;;;;;;;19.53;15.27;;;6.90;99.90;;;;;;5092290;28;20771;-70
2024/03/09 05:50:26;;;;;;;20.60;15.90;;;6.90;99.90;;;;;;5096224;28;20812;-71
2024/03/09 05:52:53;;;;;;;18.57;15.00;;;6.80;99.90;;;;;;5095856;28;20434;-70
2024/03/09 05:55:19;;;;;;;21.53;17.17;;;6.80;99.90;;;;;;5095793;28;20437;-70
2024/03/09 05:57:49;;;;;;;19.07;15.93;;;6.80;99.90;;;;;;5080255;28;20417;-70
2024/03/09 06:00:17;;;;;;;19.80;17.20;;;6.80;99.90;;;;;;5075724;28;20446;-71
2024/03/09 06:02:44;;;;;;;18.13;15.20;;;6.90;99.90;;;;;;5075618;28;20417;-71
2024/03/09 06:05:10;;;;;;;17.97;15.40;;;6.90;99.90;;;;;;5075376;28;20435;-71
2024/03/09 06:07:46;;;;;;;22.00;16.73;;;6.70;99.90;;;;;;5088220;28;20395;-70
2024/03/09 06:10:19;;;;;;;20.27;15.63;;;6.40;99.90;;;;;;5095652;28;20795;-70
2024/03/09 06:12:49;;;;;;;20.63;16.00;;;6.20;99.90;;;;;;5095277;28;20415;-69
2024/03/09 06:15:16;;;;;;;22.03;15.83;;;6.00;99.90;;;;;;5095571;28;20408;-70
2024/03/09 06:17:51;;;;;;;20.07;16.00;;;6.10;99.90;;;;;;5081678;28;20783;-70
2024/03/09 06:20:17;;;;;;;20.00;16.20;;;6.30;99.90;;;;;;5075143;28;20605;-70
2024/03/09 06:22:45;;;;;;;19.30;16.50;;;6.30;99.90;;;;;;5068947;28;20414;-72
2024/03/09 06:25:12;;;;;;;19.77;15.70;;;6.20;99.90;;;;;;5065447;28;20784;-71
2024/03/09 06:27:40;;;;;;;20.07;15.60;;;6.10;99.90;;;;;;5065335;28;20943;-71
2024/03/09 06:30:10;;;;;;;22.67;17.57;;;6.10;99.90;;;;;;5065479;28;20920;-73
2024/03/09 06:32:36;;;;;;;19.00;15.10;;;6.10;99.90;;;;;;5064918;28;20422;-71
2024/03/09 06:35:03;;;;;;;22.63;16.23;;;6.30;99.90;;;;;;5047069;28;20433;-71
2024/03/09 06:37:28;;;;;;;21.10;16.43;;;6.40;99.90;;;;;;5065303;28;20269;-70
2024/03/09 06:39:54;;;;;;;22.90;17.40;;;6.50;99.90;;;;;;5064669;28;21122;-70
2024/03/09 06:42:22;;;;;;;19.13;15.97;;;6.40;99.90;;;;;;5065262;28;20588;-70
2024/03/09 06:44:48;;;;;;;20.60;15.40;;;6.40;99.90;;;;;;5064973;28;20658;-69
2024/03/09 06:47:14;;;;;;;21.70;18.03;;;6.40;99.90;;;;;;5065035;28;20507;-70
2024/03/09 06:49:40;;;;;;;19.10;15.57;;;6.40;99.90;;;;;;5065294;28;20171;-70
2024/03/09 06:52:06;;;;;;;23.33;16.33;;;6.60;99.90;;;;;;5065016;28;20186;-71
2024/03/09 06:54:32;;;;;;;18.33;16.33;;;6.50;99.90;;;;;;5064676;28;20490;-70
2024/03/09 06:56:58;;;;;;;20.60;16.80;;;6.50;99.90;;;;;;5064588;28;20769;-72
2024/03/09 06:59:24;;;;;;;19.47;16.73;;;6.40;99.90;;;;;;5064644;28;20180;-69
2024/03/09 07:01:52;;;;;;;20.80;15.80;;;6.30;99.90;;;;;;5064539;28;20465;-74
2024/03/09 07:04:18;;;;;;;21.87;16.40;;;6.30;99.90;;;;;;5065099;28;20200;-69
2024/03/09 07:06:44;;;;;;;21.30;16.50;;;6.30;99.90;;;;;;5064547;28;20510;-70
2024/03/09 07:09:11;;;;;;;22.10;16.17;;;6.40;99.90;;;;;;5064420;28;20420;-71
2024/03/09 07:11:38;;;;;;;16.23;14.50;;;6.60;99.90;;;;;;5064394;28;20428;-71
2024/03/09 07:14:04;;;;;;;20.10;16.60;;;6.70;99.90;;;;;;5064445;28;20565;-74
2024/03/09 07:16:29;;;;;;;21.17;16.07;;;7.00;99.90;;;;;;5064650;28;20416;-70
2024/03/09 07:18:56;;;;;;;18.33;16.33;;;7.20;99.90;;;;;;5064322;28;21059;-69
2024/03/09 07:21:25;;;;;;;19.33;15.10;;;7.10;99.90;;;;;;5064398;28;20549;-70
2024/03/09 07:23:50;;;;;;;19.50;16.20;;;7.30;99.90;;;;;;5064108;28;20430;-69
2024/03/09 07:26:16;;;;;;;22.67;16.97;;;7.30;99.90;;;;;;5064835;28;20917;-70
2024/03/09 07:28:43;;;;;;;26.00;16.20;;;7.40;99.90;;;;;;5063839;28;20183;-70
2024/03/09 07:31:09;;;;;;;18.07;16.07;;;7.50;99.90;;;;;;5064022;28;20403;-70
2024/03/09 07:33:35;;;;;;;21.37;16.13;;;7.60;99.90;;;;;;5063924;28;20804;-70
2024/03/09 07:36:01;;;;;;;20.70;16.80;;;7.60;99.90;;;;;;5093502;22;20494;-74
2024/03/09 07:38:29;;;;;;;20.20;16.27;;;7.70;99.90;;;;;;5092135;28;20172;-74
2024/03/09 07:40:54;;;;;;;18.73;15.13;;;7.70;99.90;;;;;;5093390;28;20505;-74
2024/03/09 07:43:20;;;;;;;21.47;17.13;;;7.80;99.90;;;;;;5093588;28;20418;-74
2024/03/09 07:45:48;;;;;;;24.80;17.07;;;7.80;99.90;;;;;;5075508;28;20201;-73
2024/03/09 07:48:14;;;;;;;19.00;15.23;;;7.90;99.90;;;;;;5076532;28;20268;-73
2024/03/09 07:50:39;;;;;;;21.90;16.40;;;8.00;99.90;;;;;;5073662;28;20478;-74
2024/03/09 07:53:06;;;;;;;20.40;16.43;;;8.10;99.90;;;;;;5073482;28;20230;-74
2024/03/09 07:55:32;;;;;;;20.73;15.40;;;8.20;99.90;;;;;;5072862;28;20190;-73
2024/03/09 07:57:58;;;;;;;19.73;16.07;;;8.30;99.90;;;;;;5087119;28;20442;-73
2024/03/09 08:00:27;;;;;;;19.50;16.17;;;8.30;99.90;;;;;;5092911;28;20878;-74
2024/03/09 08:02:54;;;;;;;19.73;15.20;;;8.30;99.90;;;;;;5093448;28;20410;-74
2024/03/09 08:05:22;;;;;;;21.10;16.47;;;8.40;99.90;;;;;;5093494;28;20438;-74
2024/03/09 08:07:48;;;;;;;21.47;17.70;;;8.40;99.90;;;;;;5071483;28;20415;-74
2024/03/09 08:10:18;;;;;;;20.03;16.80;;;8.20;99.90;;;;;;5073154;28;20411;-74
2024/03/09 08:12:44;;;;;;;20.73;16.33;;;8.40;99.90;;;;;;5072655;28;20408;-74
2024/03/09 08:15:12;;;;;;;18.17;15.13;;;8.40;99.90;;;;;;5072828;28;20419;-74
2024/03/09 08:17:39;;;;;;;22.27;17.27;;;8.60;99.90;;;;;;5083899;28;20409;-74
2024/03/09 08:20:08;;;;;;;19.37;16.27;;;8.70;99.90;;;;;;5092320;28;20458;-74
2024/03/09 08:22:39;;;;;;;18.57;15.70;;;8.70;99.90;;;;;;5093116;28;20401;-74
2024/03/09 08:25:06;;;;;;;18.77;15.17;;;8.70;99.90;;;;;;5092962;28;20473;-74
2024/03/09 08:27:37;;;;;;;21.33;15.60;;;8.40;99.90;;;;;;5079141;28;20509;-73
2024/03/09 08:30:04;;;;;;;18.03;15.23;;;8.50;99.90;;;;;;5071405;28;20426;-74
2024/03/09 08:32:30;;;;;;;20.33;17.27;;;8.30;99.90;;;;;;5072580;28;20396;-73
2024/03/09 08:34:55;;;;;;;19.67;16.47;;;8.40;99.90;;;;;;5072657;28;20448;-74
2024/03/09 08:37:21;;;;;;;19.63;15.97;;;8.50;99.90;;;;;;5081004;28;20166;-74
2024/03/09 08:39:46;;;;;;;21.87;17.23;;;8.60;99.90;;;;;;5092494;28;20172;-74
2024/03/09 08:42:12;;;;;;;20.63;16.07;;;8.80;99.90;;;;;;5092375;28;20249;-73
2024/03/09 08:44:39;;;;;;;18.77;15.20;;;8.90;99.90;;;;;;5074217;28;20164;-75
2024/03/09 08:47:04;;;;;;;18.07;16.17;;;9.20;99.90;;;;;;5091197;28;20165;-74
2024/03/09 08:49:31;;;;;;;19.73;16.10;;;9.40;99.90;;;;;;5092429;28;20413;-74
2024/03/09 08:51:57;;;;;;;19.90;16.67;;;9.50;99.90;;;;;;5092673;28;20163;-75
2024/03/09 08:54:24;;;;;;;21.70;17.77;;;9.20;99.90;;;;;;5092928;28;20411;-74
2024/03/09 08:56:55;;;;;;;19.33;16.30;;;9.30;99.90;;;;;;5088625;28;20425;-73
2024/03/09 08:59:21;;;;;;;21.47;17.80;;;9.40;99.90;;;;;;5071057;28;20580;-74
2024/03/09 09:01:48;;;;;;;20.70;16.50;;;9.60;99.90;;;;;;5072326;28;20474;-74
2024/03/09 09:04:14;;;;;;;20.00;16.50;;;9.60;99.90;;;;;;5072549;28;20410;-74
2024/03/09 09:06:39;;;;;;;17.80;15.90;;;9.40;99.90;;;;;;5072061;28;20435;-74
2024/03/09 09:09:09;;;;;;;20.40;16.10;;;9.30;99.90;;;;;;5072689;28;20646;-74
2024/03/09 09:11:35;;;;;;;20.03;16.30;;;9.20;99.90;;;;;;5072706;28;20183;-74
2024/03/09 09:14:03;;;;;;;20.10;17.27;;;9.30;99.90;;;;;;5072121;28;20434;-73
2024/03/09 09:16:29;;;;;;;21.13;18.07;;;9.40;99.90;;;;;;5073104;28;20245;-73
2024/03/09 09:18:57;;;;;;;22.30;18.30;;;9.50;99.90;;;;;;5092255;28;20446;-73
2024/03/09 09:21:22;;;;;;;22.20;17.33;;;9.60;99.90;;;;;;5092415;28;20346;-73
2024/03/09 09:23:48;;;;;;;20.40;17.20;;;9.70;99.90;;;;;;5074354;28;20449;-74
2024/03/09 09:26:14;;;;;;;21.43;17.20;;;10.00;99.90;;;;;;5092248;28;20251;-73
2024/03/09 09:28:40;;;;;;;21.83;16.90;;;10.10;99.90;;;;;;5073631;28;20177;-74
2024/03/09 09:31:06;;;;;;;20.10;16.30;;;10.20;99.90;;;;;;5072906;28;20414;-74
2024/03/09 09:33:31;;;;;;;19.47;17.30;;;10.30;99.90;;;;;;5077379;28;20585;-73
2024/03/09 09:35:58;;;;;;;21.33;15.90;;;10.50;99.90;;;;;;5059119;28;20870;-73
2024/03/09 09:38:26;;;;;;;20.30;16.73;;;10.50;99.90;;;;;;5093681;28;20222;-74
2024/03/09 09:40:57;;;;;;;19.83;16.77;;;10.70;99.90;;;;;;5097646;28;20900;-74
2024/03/09 09:43:26;;;;;;;20.97;17.80;;;10.90;99.90;;;;;;5096067;28;20422;-75
2024/03/09 09:45:53;;;;;;;22.73;16.37;;;11.00;99.90;;;;;;5095633;28;20415;-75
2024/03/09 09:48:19;;;;;;;16.97;14.40;;;11.00;99.90;;;;;;5074230;28;20408;-74
2024/03/09 09:50:46;;;;;;;15.67;12.03;;;11.20;99.90;;;;;;5075544;28;20459;-73
2024/03/09 09:53:14;;;;;;;13.50;11.50;;;11.40;99.90;;;;;;5076149;28;20408;-74
2024/03/09 09:55:40;;;;;;;13.20;11.80;;;11.50;99.90;;;;;;5075501;28;20479;-74
2024/03/09 09:58:06;;;;;;;13.13;11.73;;;11.70;99.90;;;;;;5089099;28;20921;-74
2024/03/09 10:00:31;;;;;;;14.20;11.77;;;11.90;99.90;;;;;;5095335;28;20199;-73
2024/03/09 10:03:00;;;;;;;13.57;12.17;;;12.00;99.90;;;;;;5095313;28;20256;-75
2024/03/09 10:05:33;;;;;;;12.87;11.10;;;11.90;99.90;;;;;;5095233;28;20192;-75
2024/03/09 10:08:10;;;;;;;13.57;10.33;;;12.00;99.90;;;;;;5073809;28;20409;-74
2024/03/09 10:10:41;;;;;;;10.70;9.37;;;12.20;99.90;;;;;;5075802;28;20791;-75
2024/03/09 10:13:18;;;;;;;12.27;10.20;;;12.20;99.90;;;;;;5075236;28;20764;-73
2024/03/09 10:15:49;;;;;;;12.73;9.53;;;12.20;99.90;;;;;;5074672;28;20797;-74
2024/03/09 10:18:19;;;;;;;11.20;9.63;;;12.20;99.90;;;;;;5089164;28;20960;-75
2024/03/09 10:20:44;;;;;;;12.07;9.73;;;12.40;99.90;;;;;;5075830;28;20633;-74
2024/03/09 10:23:13;;;;;;;11.77;10.00;;;12.70;99.90;;;;;;5094846;28;20501;-74
2024/03/09 10:25:40;;;;;;;10.80;9.07;;;12.90;99.90;;;;;;5094715;28;20204;-75
2024/03/09 10:28:07;;;;;;;10.60;9.10;;;13.10;99.90;;;;;;5081344;28;20416;-75
2024/03/09 10:30:37;;;;;;;11.63;10.20;;;13.30;99.90;;;;;;5074295;28;20405;-74
2024/03/09 10:33:16;;;;;;;11.30;9.40;;;13.30;99.90;;;;;;5075377;28;20388;-73
2024/03/09 10:35:45;;;;;;;12.37;8.23;;;13.40;99.90;;;;;;5074546;28;20447;-74
2024/03/09 10:38:12;;;;;;;10.73;9.07;;;13.40;99.90;;;;;;5088026;28;20404;-74
2024/03/09 10:40:39;;;;;;;12.43;10.77;;;13.40;99.40;;;;;;5094350;28;20520;-75
2024/03/09 10:43:13;;;;;;;13.33;9.70;;;13.40;99.90;;;;;;5082431;28;20490;-75
2024/03/09 10:45:41;;;;;;;12.87;9.63;;;13.40;99.90;;;;;;5072817;28;20479;-75
2024/03/09 10:48:09;;;;;;;9.80;8.40;;;13.40;99.90;;;;;;5086922;28;20403;-74
2024/03/09 10:50:50;;;;;;;10.20;9.10;;;13.40;99.50;;;;;;5094202;28;20406;-74
2024/03/09 10:53:42;;;;;;;11.10;9.50;;;13.60;99.70;;;;;;5094464;28;20392;-74
2024/03/09 10:56:21;;;;;;;13.17;11.90;;;13.70;99.90;;;;;;5094343;28;20601;-75
2024/03/09 10:58:50;;;;;;;13.57;10.47;;;13.80;99.30;;;;;;5075732;28;20400;-74
2024/03/09 11:01:21;;;;;;;12.93;10.50;;;13.70;99.30;;;;;;5074092;28;20512;-74
2024/03/09 11:03:51;;;;;;;12.60;10.93;;;13.70;99.10;;;;;;5073836;28;20401;-74
2024/03/09 11:06:22;;;;;;;11.57;10.20;;;13.70;99.30;;;;;;5073855;28;20453;-74
2024/03/09 11:08:50;;;;;;;14.17;11.37;;;14.00;99.80;;;;;;5075508;28;20998;-75
2024/03/09 11:11:31;;;;;;;15.90;12.83;;;14.10;99.50;;;;;;5094104;28;20419;-75
2024/03/09 11:14:05;;;;;;;16.27;13.50;;;14.30;99.30;;;;;;5094151;28;20402;-75
2024/03/09 11:16:31;;;;;;;15.93;13.77;;;14.40;99.30;;;;;;5093720;28;20481;-75
2024/03/09 11:18:57;;;;;;;15.10;13.30;;;14.40;99.30;;;;;;5073890;28;20408;-74
2024/03/09 11:21:32;;;;;;;16.67;13.90;;;14.40;99.10;;;;;;5073538;28;20193;-74
2024/03/09 11:24:06;;;;;;;15.50;13.80;;;14.90;98.90;;;;;;5073187;28;20164;-74
2024/03/09 11:26:53;;;;;;;15.00;13.40;;;15.70;97.90;;;;;;5073463;28;20927;-75
2024/03/09 11:29:20;;;;;;;15.23;13.57;;;;;;;;;;5052642;28;20790;-74
2024/03/09 11:31:49;;;;;;;13.87;12.40;;;18.20;93.90;;;;;;5053484;28;20401;-74
2024/03/09 11:34:22;;;;;;;15.13;13.53;;;19.00;92.30;;;;;;5053266;28;20409;-75
2024/03/09 11:36:52;;;;;;;13.93;12.50;;;21.30;88.30;;;;;;5055414;28;20444;-74
2024/03/09 11:39:22;;;;;;;13.67;11.50;;;21.70;81.10;;;;;;5093258;28;20411;-74
2024/03/09 11:41:49;;;;;;;12.03;10.73;;;22.50;76.60;;;;;;5092988;28;20451;-75
2024/03/09 11:44:22;;;;;;;13.20;11.90;;;23.50;71.10;;;;;;5093392;28;20433;-75
2024/03/09 11:46:48;;;;;;;14.67;12.57;;;23.00;69.90;;;;;;5073516;28;20431;-74
2024/03/09 11:49:15;;;;;;;13.00;10.87;;;21.70;72.70;;;;;;5071478;28;20412;-75
2024/03/09 11:51:40;;;;;;;12.43;10.93;;;22.80;72.30;;;;;;5072745;28;20516;-74
2024/03/09 11:54:09;;;;;;;11.83;10.30;;;22.90;70.70;;;;;;5072509;28;20474;-74
2024/03/09 11:56:35;;;;;;;6.47;5.80;;;24.70;67.30;;;;;;5081748;28;20671;-75
2024/03/09 11:59:06;;;;;;;5.47;4.97;;;24.40;58.60;;;;;;5093086;28;20749;-74
2024/03/09 12:01:35;;;;;;;4.30;3.90;;;25.10;57.00;;;;;;5092820;28;20462;-74
2024/03/09 12:04:04;;;;;;;4.63;4.23;;;24.10;54.00;;;;;;5074704;28;20506;-74
2024/03/09 12:06:30;;;;;;;5.53;4.67;;;23.50;54.20;;;;;;5078608;28;20562;-73
2024/03/09 12:08:57;;;;;;;4.07;3.63;;;23.90;55.80;;;;;;5072617;28;20429;-72
2024/03/09 12:11:25;;;;;;;3.63;3.33;;;23.10;52.50;;;;;;5071235;28;20423;-73
2024/03/09 12:13:52;;;;;;;2.83;2.63;;;23.10;55.00;;;;;;5073033;28;20858;-73
2024/03/09 12:16:18;;;;;;;5.47;3.67;;;23.40;51.30;;;;;;5084505;28;20432;-74
2024/03/09 12:18:45;;;;;;;4.10;3.33;;;22.80;51.30;;;;;;5074154;28;20407;-73
2024/03/09 12:21:15;;;;;;;4.40;3.13;;;22.60;52.00;;;;;;5093162;28;20450;-74
2024/03/09 12:23:41;;;;;;;7.70;3.50;;;22.40;52.40;;;;;;5092885;28;20399;-72
2024/03/09 12:26:07;;;;;;;5.53;4.10;;;22.80;52.40;;;;;;5082096;28;20512;-72
2024/03/09 12:28:32;;;;;;;5.83;4.27;;;23.20;50.70;;;;;;5072304;28;20171;-73
2024/03/09 12:30:59;;;;;;;4.90;4.43;;;22.70;52.60;;;;;;5072408;28;20404;-72
2024/03/09 12:33:28;;;;;;;6.63;5.00;;;22.30;52.20;;;;;;5070781;28;20594;-72
2024/03/09 12:36:00;;;;;;;5.97;5.13;;;22.00;51.70;;;;;;5081008;28;20446;-73
2024/03/09 12:38:26;;;;;;;5.70;5.20;;;22.20;52.60;;;;;;5092672;28;20450;-73
2024/03/09 12:40:53;;;;;;;5.40;4.90;;;22.00;53.60;;;;;;5091721;28;20452;-73